sensor_id;sensor_type;location;lat;lon;timestamp;P1;durP1;ratioP1;P2;durP2;ratioP2
74309;SDS011;62722;51.142;17.052;2023-07-13T00:00:48;8.50;;;4.13;;
74309;SDS011;62722;51.142;17.052;2023-07-13T00:03:36;7.53;;;4.32;;
74309;SDS011;62722;51.142;17.052;2023-07-13T00:06:03;8.27;;;4.45;;
74309;SDS011;62722;51.142;17.052;2023-07-13T00:08:32;8.55;;;4.65;;
74309;SDS011;62722;51.142;17.052;2023-07-13T00:10:59;6.85;;;4.20;;
74309;SDS011;62722;51.142;17.052;2023-07-13T00:13:27;6.65;;;4.05;;
74309;SDS011;62722;51.142;17.052;2023-07-13T00:15:55;6.75;;;4.13;;
74309;SDS011;62722;51.142;17.052;2023-07-13T00:18:22;9.43;;;4.43;;
74309;SDS011;62722;51.142;17.052;2023-07-13T00:20:49;8.52;;;4.75;;
74309;SDS011;62722;51.142;17.052;2023-07-13T00:23:17;7.13;;;4.88;;
74309;SDS011;62722;51.142;17.052;2023-07-13T00:25:46;8.15;;;4.68;;
74309;SDS011;62722;51.142;17.052;2023-07-13T00:28:13;8.90;;;4.50;;
74309;SDS011;62722;51.142;17.052;2023-07-13T00:30:40;6.70;;;4.18;;
74309;SDS011;62722;51.142;17.052;2023-07-13T00:33:07;7.55;;;4.85;;
74309;SDS011;62722;51.142;17.052;2023-07-13T00:35:35;8.13;;;5.05;;
74309;SDS011;62722;51.142;17.052;2023-07-13T00:38:04;8.27;;;5.45;;
74309;SDS011;62722;51.142;17.052;2023-07-13T00:40:31;6.78;;;4.57;;
74309;SDS011;62722;51.142;17.052;2023-07-13T00:43:00;6.88;;;4.43;;
74309;SDS011;62722;51.142;17.052;2023-07-13T00:48:13;8.68;;;6.15;;
74309;SDS011;62722;51.142;17.052;2023-07-13T00:50:41;8.52;;;5.78;;
74309;SDS011;62722;51.142;17.052;2023-07-13T00:53:09;6.82;;;4.75;;
74309;SDS011;62722;51.142;17.052;2023-07-13T00:55:37;9.05;;;4.60;;
74309;SDS011;62722;51.142;17.052;2023-07-13T00:58:06;7.35;;;4.72;;
74309;SDS011;62722;51.142;17.052;2023-07-13T01:00:33;8.13;;;4.85;;
74309;SDS011;62722;51.142;17.052;2023-07-13T01:03:02;7.82;;;4.57;;
74309;SDS011;62722;51.142;17.052;2023-07-13T01:05:30;8.60;;;5.00;;
74309;SDS011;62722;51.142;17.052;2023-07-13T01:07:59;9.27;;;5.15;;
74309;SDS011;62722;51.142;17.052;2023-07-13T01:10:26;7.07;;;4.75;;
74309;SDS011;62722;51.142;17.052;2023-07-13T01:12:54;7.65;;;4.75;;
74309;SDS011;62722;51.142;17.052;2023-07-13T01:15:38;9.82;;;5.10;;
74309;SDS011;62722;51.142;17.052;2023-07-13T01:18:07;10.15;;;4.90;;
74309;SDS011;62722;51.142;17.052;2023-07-13T01:20:34;8.77;;;4.82;;
74309;SDS011;62722;51.142;17.052;2023-07-13T01:23:05;8.48;;;4.93;;
74309;SDS011;62722;51.142;17.052;2023-07-13T01:25:33;8.45;;;4.95;;
74309;SDS011;62722;51.142;17.052;2023-07-13T01:28:01;7.57;;;5.05;;
74309;SDS011;62722;51.142;17.052;2023-07-13T01:30:28;8.20;;;5.00;;
74309;SDS011;62722;51.142;17.052;2023-07-13T01:32:56;6.50;;;4.50;;
74309;SDS011;62722;51.142;17.052;2023-07-13T01:35:24;8.48;;;5.00;;
74309;SDS011;62722;51.142;17.052;2023-07-13T01:37:52;7.13;;;4.70;;
74309;SDS011;62722;51.142;17.052;2023-07-13T01:40:21;7.82;;;4.35;;
74309;SDS011;62722;51.142;17.052;2023-07-13T01:42:48;7.15;;;4.90;;
74309;SDS011;62722;51.142;17.052;2023-07-13T01:45:16;6.22;;;4.38;;
74309;SDS011;62722;51.142;17.052;2023-07-13T01:47:43;9.63;;;5.45;;
74309;SDS011;62722;51.142;17.052;2023-07-13T01:50:11;8.27;;;4.97;;
74309;SDS011;62722;51.142;17.052;2023-07-13T01:52:38;6.43;;;4.70;;
74309;SDS011;62722;51.142;17.052;2023-07-13T01:55:06;10.10;;;5.00;;
74309;SDS011;62722;51.142;17.052;2023-07-13T01:57:35;8.60;;;5.13;;
74309;SDS011;62722;51.142;17.052;2023-07-13T02:00:02;7.85;;;4.60;;
74309;SDS011;62722;51.142;17.052;2023-07-13T02:02:30;7.70;;;4.95;;
74309;SDS011;62722;51.142;17.052;2023-07-13T02:04:57;7.72;;;4.57;;
74309;SDS011;62722;51.142;17.052;2023-07-13T02:07:25;6.57;;;4.57;;
74309;SDS011;62722;51.142;17.052;2023-07-13T02:09:52;7.35;;;4.70;;
74309;SDS011;62722;51.142;17.052;2023-07-13T02:12:19;8.00;;;5.00;;
74309;SDS011;62722;51.142;17.052;2023-07-13T02:14:48;7.70;;;4.90;;
74309;SDS011;62722;51.142;17.052;2023-07-13T02:17:15;7.80;;;4.80;;
74309;SDS011;62722;51.142;17.052;2023-07-13T02:19:42;9.48;;;5.05;;
74309;SDS011;62722;51.142;17.052;2023-07-13T02:22:10;7.10;;;5.25;;
74309;SDS011;62722;51.142;17.052;2023-07-13T02:24:37;7.40;;;4.78;;
74309;SDS011;62722;51.142;17.052;2023-07-13T02:27:05;7.63;;;4.65;;
74309;SDS011;62722;51.142;17.052;2023-07-13T02:29:33;7.28;;;4.90;;
74309;SDS011;62722;51.142;17.052;2023-07-13T02:32:01;7.25;;;5.03;;
74309;SDS011;62722;51.142;17.052;2023-07-13T02:34:29;11.52;;;6.30;;
74309;SDS011;62722;51.142;17.052;2023-07-13T02:36:56;8.07;;;5.30;;
74309;SDS011;62722;51.142;17.052;2023-07-13T02:39:24;9.38;;;5.35;;
74309;SDS011;62722;51.142;17.052;2023-07-13T02:41:52;9.05;;;5.50;;
74309;SDS011;62722;51.142;17.052;2023-07-13T02:44:19;8.30;;;5.32;;
74309;SDS011;62722;51.142;17.052;2023-07-13T02:46:46;9.88;;;5.70;;
74309;SDS011;62722;51.142;17.052;2023-07-13T02:49:15;7.13;;;5.10;;
74309;SDS011;62722;51.142;17.052;2023-07-13T02:51:42;8.55;;;5.47;;
74309;SDS011;62722;51.142;17.052;2023-07-13T02:54:09;10.75;;;5.85;;
74309;SDS011;62722;51.142;17.052;2023-07-13T02:56:39;8.55;;;5.45;;
74309;SDS011;62722;51.142;17.052;2023-07-13T02:59:07;7.63;;;5.00;;
74309;SDS011;62722;51.142;17.052;2023-07-13T03:01:34;7.35;;;5.18;;
74309;SDS011;62722;51.142;17.052;2023-07-13T03:04:01;8.25;;;5.25;;
74309;SDS011;62722;51.142;17.052;2023-07-13T03:06:31;8.55;;;5.95;;
74309;SDS011;62722;51.142;17.052;2023-07-13T03:08:59;8.55;;;5.50;;
74309;SDS011;62722;51.142;17.052;2023-07-13T03:11:27;8.40;;;5.55;;
74309;SDS011;62722;51.142;17.052;2023-07-13T03:13:54;7.93;;;5.43;;
74309;SDS011;62722;51.142;17.052;2023-07-13T03:16:21;10.65;;;5.60;;
74309;SDS011;62722;51.142;17.052;2023-07-13T03:18:48;9.00;;;5.88;;
74309;SDS011;62722;51.142;17.052;2023-07-13T03:21:16;8.48;;;5.47;;
74309;SDS011;62722;51.142;17.052;2023-07-13T03:23:45;9.25;;;6.25;;
74309;SDS011;62722;51.142;17.052;2023-07-13T03:26:13;10.20;;;5.70;;
74309;SDS011;62722;51.142;17.052;2023-07-13T03:28:40;9.35;;;5.97;;
74309;SDS011;62722;51.142;17.052;2023-07-13T03:31:09;10.00;;;6.13;;
74309;SDS011;62722;51.142;17.052;2023-07-13T03:33:36;9.10;;;6.45;;
74309;SDS011;62722;51.142;17.052;2023-07-13T03:36:03;10.32;;;6.40;;
74309;SDS011;62722;51.142;17.052;2023-07-13T03:38:31;9.10;;;6.00;;
74309;SDS011;62722;51.142;17.052;2023-07-13T03:40:59;8.00;;;6.03;;
74309;SDS011;62722;51.142;17.052;2023-07-13T03:43:27;11.93;;;6.18;;
74309;SDS011;62722;51.142;17.052;2023-07-13T03:45:54;11.43;;;6.40;;
74309;SDS011;62722;51.142;17.052;2023-07-13T03:48:22;8.13;;;6.43;;
74309;SDS011;62722;51.142;17.052;2023-07-13T03:50:49;8.95;;;6.40;;
74309;SDS011;62722;51.142;17.052;2023-07-13T03:53:16;9.60;;;6.55;;
74309;SDS011;62722;51.142;17.052;2023-07-13T03:55:44;8.95;;;5.70;;
74309;SDS011;62722;51.142;17.052;2023-07-13T03:58:26;8.95;;;5.63;;
74309;SDS011;62722;51.142;17.052;2023-07-13T04:00:54;8.63;;;6.03;;
74309;SDS011;62722;51.142;17.052;2023-07-13T04:03:21;8.55;;;6.03;;
74309;SDS011;62722;51.142;17.052;2023-07-13T04:05:49;10.07;;;6.45;;
74309;SDS011;62722;51.142;17.052;2023-07-13T04:08:16;7.80;;;5.88;;
74309;SDS011;62722;51.142;17.052;2023-07-13T04:10:43;8.75;;;5.78;;
74309;SDS011;62722;51.142;17.052;2023-07-13T04:13:10;10.45;;;6.55;;
74309;SDS011;62722;51.142;17.052;2023-07-13T04:15:39;8.70;;;5.65;;
74309;SDS011;62722;51.142;17.052;2023-07-13T04:18:06;10.45;;;5.72;;
74309;SDS011;62722;51.142;17.052;2023-07-13T04:20:34;7.65;;;5.43;;
74309;SDS011;62722;51.142;17.052;2023-07-13T04:23:01;9.82;;;5.50;;
74309;SDS011;62722;51.142;17.052;2023-07-13T04:25:29;7.53;;;5.57;;
74309;SDS011;62722;51.142;17.052;2023-07-13T04:27:56;8.45;;;5.28;;
74309;SDS011;62722;51.142;17.052;2023-07-13T04:30:23;9.15;;;4.93;;
74309;SDS011;62722;51.142;17.052;2023-07-13T04:32:52;7.13;;;4.40;;
74309;SDS011;62722;51.142;17.052;2023-07-13T04:35:19;6.78;;;3.78;;
74309;SDS011;62722;51.142;17.052;2023-07-13T04:37:47;9.20;;;4.15;;
74309;SDS011;62722;51.142;17.052;2023-07-13T04:40:16;6.75;;;3.65;;
74309;SDS011;62722;51.142;17.052;2023-07-13T04:42:43;9.23;;;4.25;;
74309;SDS011;62722;51.142;17.052;2023-07-13T04:45:10;6.60;;;4.15;;
74309;SDS011;62722;51.142;17.052;2023-07-13T04:47:38;9.88;;;4.22;;
74309;SDS011;62722;51.142;17.052;2023-07-13T04:50:07;6.53;;;3.95;;
74309;SDS011;62722;51.142;17.052;2023-07-13T04:52:36;5.88;;;3.53;;
74309;SDS011;62722;51.142;17.052;2023-07-13T04:55:03;6.00;;;3.83;;
74309;SDS011;62722;51.142;17.052;2023-07-13T04:57:31;7.82;;;3.50;;
74309;SDS011;62722;51.142;17.052;2023-07-13T04:59:58;5.80;;;3.22;;
74309;SDS011;62722;51.142;17.052;2023-07-13T05:02:26;5.00;;;2.90;;
74309;SDS011;62722;51.142;17.052;2023-07-13T05:04:54;4.88;;;3.13;;
74309;SDS011;62722;51.142;17.052;2023-07-13T05:07:22;6.53;;;3.90;;
74309;SDS011;62722;51.142;17.052;2023-07-13T05:09:49;8.15;;;3.55;;
74309;SDS011;62722;51.142;17.052;2023-07-13T05:12:17;6.38;;;4.20;;
74309;SDS011;62722;51.142;17.052;2023-07-13T05:14:44;6.30;;;3.38;;
74309;SDS011;62722;51.142;17.052;2023-07-13T05:17:11;6.50;;;3.88;;
74309;SDS011;62722;51.142;17.052;2023-07-13T05:19:39;7.35;;;3.60;;
74309;SDS011;62722;51.142;17.052;2023-07-13T05:22:06;6.55;;;3.90;;
74309;SDS011;62722;51.142;17.052;2023-07-13T05:24:35;8.75;;;4.82;;
74309;SDS011;62722;51.142;17.052;2023-07-13T05:27:02;6.20;;;3.83;;
74309;SDS011;62722;51.142;17.052;2023-07-13T05:29:29;6.88;;;3.97;;
74309;SDS011;62722;51.142;17.052;2023-07-13T05:31:56;7.60;;;4.38;;
74309;SDS011;62722;51.142;17.052;2023-07-13T05:34:24;7.97;;;4.82;;
74309;SDS011;62722;51.142;17.052;2023-07-13T05:36:52;10.60;;;5.53;;
74309;SDS011;62722;51.142;17.052;2023-07-13T05:39:19;9.15;;;5.55;;
74309;SDS011;62722;51.142;17.052;2023-07-13T05:41:47;10.25;;;4.95;;
74309;SDS011;62722;51.142;17.052;2023-07-13T05:44:15;8.63;;;4.93;;
74309;SDS011;62722;51.142;17.052;2023-07-13T05:46:42;8.30;;;4.35;;
74309;SDS011;62722;51.142;17.052;2023-07-13T05:49:09;8.68;;;4.57;;
74309;SDS011;62722;51.142;17.052;2023-07-13T05:51:36;21.88;;;6.75;;
74309;SDS011;62722;51.142;17.052;2023-07-13T05:54:03;16.35;;;7.65;;
74309;SDS011;62722;51.142;17.052;2023-07-13T05:56:30;15.27;;;7.35;;
74309;SDS011;62722;51.142;17.052;2023-07-13T05:58:59;8.05;;;4.82;;
74309;SDS011;62722;51.142;17.052;2023-07-13T06:01:26;8.18;;;4.00;;
74309;SDS011;62722;51.142;17.052;2023-07-13T06:03:53;7.45;;;4.43;;
74309;SDS011;62722;51.142;17.052;2023-07-13T06:06:20;9.50;;;4.55;;
74309;SDS011;62722;51.142;17.052;2023-07-13T06:08:48;7.18;;;4.47;;
74309;SDS011;62722;51.142;17.052;2023-07-13T06:11:16;7.45;;;4.63;;
74309;SDS011;62722;51.142;17.052;2023-07-13T06:13:43;7.40;;;3.72;;
74309;SDS011;62722;51.142;17.052;2023-07-13T06:16:12;8.23;;;4.85;;
74309;SDS011;62722;51.142;17.052;2023-07-13T06:18:40;10.95;;;6.63;;
74309;SDS011;62722;51.142;17.052;2023-07-13T06:21:08;11.05;;;6.22;;
74309;SDS011;62722;51.142;17.052;2023-07-13T06:23:35;6.22;;;4.63;;
74309;SDS011;62722;51.142;17.052;2023-07-13T06:26:03;8.63;;;4.75;;
74309;SDS011;62722;51.142;17.052;2023-07-13T06:28:30;8.25;;;4.60;;
74309;SDS011;62722;51.142;17.052;2023-07-13T06:30:58;6.68;;;4.30;;
74309;SDS011;62722;51.142;17.052;2023-07-13T06:33:27;7.25;;;4.93;;
74309;SDS011;62722;51.142;17.052;2023-07-13T06:35:54;7.05;;;4.05;;
74309;SDS011;62722;51.142;17.052;2023-07-13T06:38:21;6.82;;;3.65;;
74309;SDS011;62722;51.142;17.052;2023-07-13T06:40:48;5.80;;;4.05;;
74309;SDS011;62722;51.142;17.052;2023-07-13T06:43:16;5.65;;;3.80;;
74309;SDS011;62722;51.142;17.052;2023-07-13T06:45:44;7.72;;;4.68;;
74309;SDS011;62722;51.142;17.052;2023-07-13T06:48:13;8.93;;;4.85;;
74309;SDS011;62722;51.142;17.052;2023-07-13T06:50:42;9.15;;;4.65;;
74309;SDS011;62722;51.142;17.052;2023-07-13T06:53:10;8.05;;;4.50;;
74309;SDS011;62722;51.142;17.052;2023-07-13T06:55:37;5.50;;;4.40;;
74309;SDS011;62722;51.142;17.052;2023-07-13T06:58:04;9.35;;;5.38;;
74309;SDS011;62722;51.142;17.052;2023-07-13T07:00:32;17.23;;;5.93;;
74309;SDS011;62722;51.142;17.052;2023-07-13T07:02:59;9.82;;;5.65;;
74309;SDS011;62722;51.142;17.052;2023-07-13T07:05:26;10.00;;;5.25;;
74309;SDS011;62722;51.142;17.052;2023-07-13T07:07:55;7.85;;;4.68;;
74309;SDS011;62722;51.142;17.052;2023-07-13T07:10:22;7.70;;;4.78;;
74309;SDS011;62722;51.142;17.052;2023-07-13T07:12:49;6.32;;;4.47;;
74309;SDS011;62722;51.142;17.052;2023-07-13T07:15:18;8.50;;;5.60;;
74309;SDS011;62722;51.142;17.052;2023-07-13T07:17:45;5.55;;;4.40;;
74309;SDS011;62722;51.142;17.052;2023-07-13T07:20:12;7.30;;;5.32;;
74309;SDS011;62722;51.142;17.052;2023-07-13T07:22:40;7.63;;;5.43;;
74309;SDS011;62722;51.142;17.052;2023-07-13T07:25:08;8.02;;;5.88;;
74309;SDS011;62722;51.142;17.052;2023-07-13T07:27:36;8.68;;;5.38;;
74309;SDS011;62722;51.142;17.052;2023-07-13T07:30:03;10.70;;;5.45;;
74309;SDS011;62722;51.142;17.052;2023-07-13T07:32:32;10.10;;;6.22;;
74309;SDS011;62722;51.142;17.052;2023-07-13T07:34:59;8.77;;;5.95;;
74309;SDS011;62722;51.142;17.052;2023-07-13T07:37:27;9.00;;;5.97;;
74309;SDS011;62722;51.142;17.052;2023-07-13T07:39:54;9.77;;;6.20;;
74309;SDS011;62722;51.142;17.052;2023-07-13T07:42:23;10.63;;;6.10;;
74309;SDS011;62722;51.142;17.052;2023-07-13T07:44:50;10.02;;;6.20;;
74309;SDS011;62722;51.142;17.052;2023-07-13T07:47:17;11.20;;;7.78;;
74309;SDS011;62722;51.142;17.052;2023-07-13T07:49:44;12.18;;;7.20;;
74309;SDS011;62722;51.142;17.052;2023-07-13T07:52:12;17.80;;;9.25;;
74309;SDS011;62722;51.142;17.052;2023-07-13T07:54:39;13.65;;;8.48;;
74309;SDS011;62722;51.142;17.052;2023-07-13T07:57:06;10.55;;;7.15;;
74309;SDS011;62722;51.142;17.052;2023-07-13T07:59:35;9.90;;;6.05;;
74309;SDS011;62722;51.142;17.052;2023-07-13T08:02:03;14.02;;;8.23;;
74309;SDS011;62722;51.142;17.052;2023-07-13T08:04:30;11.63;;;7.40;;
74309;SDS011;62722;51.142;17.052;2023-07-13T08:06:57;10.82;;;7.18;;
74309;SDS011;62722;51.142;17.052;2023-07-13T08:09:24;12.85;;;7.45;;
74309;SDS011;62722;51.142;17.052;2023-07-13T08:11:52;12.20;;;6.68;;
74309;SDS011;62722;51.142;17.052;2023-07-13T08:14:20;11.18;;;6.57;;
74309;SDS011;62722;51.142;17.052;2023-07-13T08:16:49;8.60;;;6.00;;
74309;SDS011;62722;51.142;17.052;2023-07-13T08:19:16;7.60;;;5.60;;
74309;SDS011;62722;51.142;17.052;2023-07-13T08:21:43;8.75;;;5.22;;
74309;SDS011;62722;51.142;17.052;2023-07-13T08:24:10;8.63;;;5.50;;
74309;SDS011;62722;51.142;17.052;2023-07-13T08:26:37;8.77;;;5.60;;
74309;SDS011;62722;51.142;17.052;2023-07-13T08:29:04;8.32;;;5.90;;
74309;SDS011;62722;51.142;17.052;2023-07-13T08:31:32;10.80;;;5.57;;
74309;SDS011;62722;51.142;17.052;2023-07-13T08:34:00;8.32;;;4.72;;
74309;SDS011;62722;51.142;17.052;2023-07-13T08:36:28;9.57;;;5.78;;
74309;SDS011;62722;51.142;17.052;2023-07-13T08:38:55;9.07;;;5.35;;
74309;SDS011;62722;51.142;17.052;2023-07-13T08:41:23;8.50;;;5.70;;
74309;SDS011;62722;51.142;17.052;2023-07-13T08:43:51;7.60;;;5.03;;
74309;SDS011;62722;51.142;17.052;2023-07-13T08:48:48;10.18;;;5.40;;
74309;SDS011;62722;51.142;17.052;2023-07-13T08:51:23;8.57;;;5.80;;
74309;SDS011;62722;51.142;17.052;2023-07-13T08:53:52;8.18;;;5.10;;
74309;SDS011;62722;51.142;17.052;2023-07-13T08:56:22;7.57;;;5.15;;
74309;SDS011;62722;51.142;17.052;2023-07-13T08:58:50;9.02;;;5.50;;
74309;SDS011;62722;51.142;17.052;2023-07-13T09:01:21;7.82;;;5.80;;
74309;SDS011;62722;51.142;17.052;2023-07-13T09:03:50;10.63;;;5.78;;
74309;SDS011;62722;51.142;17.052;2023-07-13T09:06:26;6.93;;;5.47;;
74309;SDS011;62722;51.142;17.052;2023-07-13T09:08:55;6.65;;;4.70;;
74309;SDS011;62722;51.142;17.052;2023-07-13T09:11:33;8.50;;;5.10;;
74309;SDS011;62722;51.142;17.052;2023-07-13T09:16:30;7.53;;;5.10;;
74309;SDS011;62722;51.142;17.052;2023-07-13T09:18:59;7.28;;;5.03;;
74309;SDS011;62722;51.142;17.052;2023-07-13T09:21:30;6.90;;;4.25;;
74309;SDS011;62722;51.142;17.052;2023-07-13T09:23:59;6.53;;;3.92;;
74309;SDS011;62722;51.142;17.052;2023-07-13T09:26:27;8.07;;;5.43;;
74309;SDS011;62722;51.142;17.052;2023-07-13T09:28:56;8.75;;;5.82;;
74309;SDS011;62722;51.142;17.052;2023-07-13T09:31:26;8.68;;;5.10;;
74309;SDS011;62722;51.142;17.052;2023-07-13T09:33:56;8.48;;;5.82;;
74309;SDS011;62722;51.142;17.052;2023-07-13T09:36:24;8.52;;;5.07;;
74309;SDS011;62722;51.142;17.052;2023-07-13T09:38:56;7.25;;;4.50;;
74309;SDS011;62722;51.142;17.052;2023-07-13T09:41:27;6.72;;;4.85;;
74309;SDS011;62722;51.142;17.052;2023-07-13T09:44:06;6.47;;;4.47;;
74309;SDS011;62722;51.142;17.052;2023-07-13T09:46:34;7.82;;;5.13;;
74309;SDS011;62722;51.142;17.052;2023-07-13T09:49:02;6.85;;;4.80;;
74309;SDS011;62722;51.142;17.052;2023-07-13T09:51:29;5.50;;;3.58;;
74309;SDS011;62722;51.142;17.052;2023-07-13T09:53:57;6.60;;;4.28;;
74309;SDS011;62722;51.142;17.052;2023-07-13T09:56:27;8.30;;;3.88;;
74309;SDS011;62722;51.142;17.052;2023-07-13T09:58:54;5.38;;;3.75;;
74309;SDS011;62722;51.142;17.052;2023-07-13T10:01:33;5.70;;;3.90;;
74309;SDS011;62722;51.142;17.052;2023-07-13T10:04:00;5.85;;;3.63;;
74309;SDS011;62722;51.142;17.052;2023-07-13T10:06:27;5.22;;;3.28;;
74309;SDS011;62722;51.142;17.052;2023-07-13T10:08:56;7.00;;;3.78;;
74309;SDS011;62722;51.142;17.052;2023-07-13T10:11:26;6.07;;;3.47;;
74309;SDS011;62722;51.142;17.052;2023-07-13T10:13:55;7.43;;;3.75;;
74309;SDS011;62722;51.142;17.052;2023-07-13T10:16:24;5.88;;;3.85;;
74309;SDS011;62722;51.142;17.052;2023-07-13T10:18:53;5.40;;;3.83;;
74309;SDS011;62722;51.142;17.052;2023-07-13T10:23:50;6.32;;;3.58;;
74309;SDS011;62722;51.142;17.052;2023-07-13T10:26:20;6.25;;;3.40;;
74309;SDS011;62722;51.142;17.052;2023-07-13T10:28:51;4.50;;;3.20;;
74309;SDS011;62722;51.142;17.052;2023-07-13T10:31:19;4.95;;;3.00;;
74309;SDS011;62722;51.142;17.052;2023-07-13T10:33:46;5.05;;;2.28;;
74309;SDS011;62722;51.142;17.052;2023-07-13T10:36:16;3.10;;;2.35;;
74309;SDS011;62722;51.142;17.052;2023-07-13T10:38:45;3.75;;;2.33;;
74309;SDS011;62722;51.142;17.052;2023-07-13T10:41:15;2.72;;;1.92;;
74309;SDS011;62722;51.142;17.052;2023-07-13T10:43:44;4.13;;;2.45;;
74309;SDS011;62722;51.142;17.052;2023-07-13T10:46:14;3.83;;;2.53;;
74309;SDS011;62722;51.142;17.052;2023-07-13T10:48:43;4.50;;;2.40;;
74309;SDS011;62722;51.142;17.052;2023-07-13T10:51:10;3.67;;;2.47;;
74309;SDS011;62722;51.142;17.052;2023-07-13T10:53:38;4.72;;;2.40;;
74309;SDS011;62722;51.142;17.052;2023-07-13T10:56:16;4.22;;;2.60;;
74309;SDS011;62722;51.142;17.052;2023-07-13T10:58:45;4.28;;;2.50;;
74309;SDS011;62722;51.142;17.052;2023-07-13T11:01:15;3.40;;;2.28;;
74309;SDS011;62722;51.142;17.052;2023-07-13T11:03:47;3.38;;;2.17;;
74309;SDS011;62722;51.142;17.052;2023-07-13T11:06:17;3.40;;;2.20;;
74309;SDS011;62722;51.142;17.052;2023-07-13T11:08:55;3.40;;;2.28;;
74309;SDS011;62722;51.142;17.052;2023-07-13T11:11:33;3.78;;;2.25;;
74309;SDS011;62722;51.142;17.052;2023-07-13T11:14:01;3.90;;;2.30;;
74309;SDS011;62722;51.142;17.052;2023-07-13T11:16:41;4.13;;;1.98;;
74309;SDS011;62722;51.142;17.052;2023-07-13T11:22:01;3.63;;;2.20;;
74309;SDS011;62722;51.142;17.052;2023-07-13T11:24:33;4.22;;;2.22;;
74309;SDS011;62722;51.142;17.052;2023-07-13T11:27:19;4.22;;;2.30;;
74309;SDS011;62722;51.142;17.052;2023-07-13T11:29:48;4.40;;;2.60;;
74309;SDS011;62722;51.142;17.052;2023-07-13T11:32:24;5.03;;;2.70;;
74309;SDS011;62722;51.142;17.052;2023-07-13T11:34:52;5.75;;;2.90;;
74309;SDS011;62722;51.142;17.052;2023-07-13T11:37:20;5.35;;;2.78;;
74309;SDS011;62722;51.142;17.052;2023-07-13T11:39:48;3.80;;;2.83;;
74309;SDS011;62722;51.142;17.052;2023-07-13T11:42:18;3.88;;;2.70;;
74309;SDS011;62722;51.142;17.052;2023-07-13T11:44:46;4.40;;;2.60;;
74309;SDS011;62722;51.142;17.052;2023-07-13T11:47:14;4.80;;;2.47;;
74309;SDS011;62722;51.142;17.052;2023-07-13T11:49:45;4.80;;;2.60;;
74309;SDS011;62722;51.142;17.052;2023-07-13T11:52:16;5.47;;;2.50;;
74309;SDS011;62722;51.142;17.052;2023-07-13T11:54:46;3.55;;;2.22;;
74309;SDS011;62722;51.142;17.052;2023-07-13T11:57:20;3.80;;;2.50;;
74309;SDS011;62722;51.142;17.052;2023-07-13T11:59:50;3.08;;;2.53;;
74309;SDS011;62722;51.142;17.052;2023-07-13T12:02:31;2.90;;;2.20;;
74309;SDS011;62722;51.142;17.052;2023-07-13T12:05:01;4.28;;;2.90;;
74309;SDS011;62722;51.142;17.052;2023-07-13T12:07:30;3.17;;;2.28;;
74309;SDS011;62722;51.142;17.052;2023-07-13T12:10:00;2.70;;;2.10;;
74309;SDS011;62722;51.142;17.052;2023-07-13T12:12:28;3.92;;;2.10;;
74309;SDS011;62722;51.142;17.052;2023-07-13T12:14:55;2.97;;;1.98;;
74309;SDS011;62722;51.142;17.052;2023-07-13T12:17:24;3.67;;;2.17;;
74309;SDS011;62722;51.142;17.052;2023-07-13T12:19:52;4.47;;;2.17;;
74309;SDS011;62722;51.142;17.052;2023-07-13T12:22:21;4.40;;;2.40;;
74309;SDS011;62722;51.142;17.052;2023-07-13T12:24:48;3.20;;;1.65;;
74309;SDS011;62722;51.142;17.052;2023-07-13T12:27:18;3.42;;;1.75;;
74309;SDS011;62722;51.142;17.052;2023-07-13T12:29:49;4.88;;;2.15;;
74309;SDS011;62722;51.142;17.052;2023-07-13T12:32:17;3.53;;;2.15;;
74309;SDS011;62722;51.142;17.052;2023-07-13T12:34:54;3.30;;;2.30;;
74309;SDS011;62722;51.142;17.052;2023-07-13T12:37:23;4.63;;;2.30;;
74309;SDS011;62722;51.142;17.052;2023-07-13T12:39:51;3.88;;;2.13;;
74309;SDS011;62722;51.142;17.052;2023-07-13T12:42:19;4.65;;;2.30;;
74309;SDS011;62722;51.142;17.052;2023-07-13T12:47:16;3.20;;;2.28;;
74309;SDS011;62722;51.142;17.052;2023-07-13T12:49:50;4.78;;;2.65;;
74309;SDS011;62722;51.142;17.052;2023-07-13T12:52:21;3.30;;;2.10;;
74309;SDS011;62722;51.142;17.052;2023-07-13T12:54:54;3.47;;;2.10;;
74309;SDS011;62722;51.142;17.052;2023-07-13T12:57:23;3.72;;;2.10;;
74309;SDS011;62722;51.142;17.052;2023-07-13T12:59:52;3.08;;;1.83;;
74309;SDS011;62722;51.142;17.052;2023-07-13T13:02:26;2.83;;;1.88;;
74309;SDS011;62722;51.142;17.052;2023-07-13T13:04:55;4.20;;;2.03;;
74309;SDS011;62722;51.142;17.052;2023-07-13T13:07:23;3.10;;;2.10;;
74309;SDS011;62722;51.142;17.052;2023-07-13T13:09:50;3.50;;;1.90;;
74309;SDS011;62722;51.142;17.052;2023-07-13T13:12:20;3.20;;;1.90;;
74309;SDS011;62722;51.142;17.052;2023-07-13T13:14:47;2.80;;;1.80;;
74309;SDS011;62722;51.142;17.052;2023-07-13T13:17:16;2.97;;;1.90;;
74309;SDS011;62722;51.142;17.052;2023-07-13T13:22:12;3.58;;;2.13;;
74309;SDS011;62722;51.142;17.052;2023-07-13T13:24:39;3.67;;;1.98;;
74309;SDS011;62722;51.142;17.052;2023-07-13T13:27:08;4.20;;;2.20;;
74309;SDS011;62722;51.142;17.052;2023-07-13T13:29:41;3.25;;;2.17;;
74309;SDS011;62722;51.142;17.052;2023-07-13T13:32:09;3.80;;;2.08;;
74309;SDS011;62722;51.142;17.052;2023-07-13T13:34:37;3.70;;;1.92;;
74309;SDS011;62722;51.142;17.052;2023-07-13T13:37:04;4.40;;;2.10;;
74309;SDS011;62722;51.142;17.052;2023-07-13T13:39:32;6.32;;;2.22;;
74309;SDS011;62722;51.142;17.052;2023-07-13T13:42:01;4.22;;;2.53;;
74309;SDS011;62722;51.142;17.052;2023-07-13T13:44:28;2.95;;;1.85;;
74309;SDS011;62722;51.142;17.052;2023-07-13T13:46:56;3.20;;;1.92;;
74309;SDS011;62722;51.142;17.052;2023-07-13T13:49:26;4.07;;;1.90;;
74309;SDS011;62722;51.142;17.052;2023-07-13T13:51:53;3.60;;;1.67;;
74309;SDS011;62722;51.142;17.052;2023-07-13T13:54:21;4.35;;;1.60;;
74309;SDS011;62722;51.142;17.052;2023-07-13T13:56:50;4.75;;;1.83;;
74309;SDS011;62722;51.142;17.052;2023-07-13T13:59:17;2.90;;;1.88;;
74309;SDS011;62722;51.142;17.052;2023-07-13T14:01:45;3.40;;;1.73;;
74309;SDS011;62722;51.142;17.052;2023-07-13T14:04:16;5.40;;;1.83;;
74309;SDS011;62722;51.142;17.052;2023-07-13T14:06:44;3.97;;;1.88;;
74309;SDS011;62722;51.142;17.052;2023-07-13T14:09:13;3.95;;;1.70;;
74309;SDS011;62722;51.142;17.052;2023-07-13T14:11:40;3.17;;;1.80;;
74309;SDS011;62722;51.142;17.052;2023-07-13T14:14:09;2.97;;;1.88;;
74309;SDS011;62722;51.142;17.052;2023-07-13T14:16:40;3.53;;;1.63;;
74309;SDS011;62722;51.142;17.052;2023-07-13T14:19:08;3.58;;;1.65;;
74309;SDS011;62722;51.142;17.052;2023-07-13T14:21:38;2.97;;;1.60;;
74309;SDS011;62722;51.142;17.052;2023-07-13T14:24:05;3.15;;;1.52;;
74309;SDS011;62722;51.142;17.052;2023-07-13T14:26:36;2.55;;;1.52;;
74309;SDS011;62722;51.142;17.052;2023-07-13T14:29:05;2.72;;;1.45;;
74309;SDS011;62722;51.142;17.052;2023-07-13T14:31:32;3.08;;;1.60;;
74309;SDS011;62722;51.142;17.052;2023-07-13T14:33:59;2.72;;;1.30;;
74309;SDS011;62722;51.142;17.052;2023-07-13T14:36:28;2.75;;;1.70;;
74309;SDS011;62722;51.142;17.052;2023-07-13T14:38:57;3.42;;;1.60;;
74309;SDS011;62722;51.142;17.052;2023-07-13T14:41:25;2.40;;;1.60;;
74309;SDS011;62722;51.142;17.052;2023-07-13T14:43:52;3.58;;;1.90;;
74309;SDS011;62722;51.142;17.052;2023-07-13T14:46:26;2.65;;;1.45;;
74309;SDS011;62722;51.142;17.052;2023-07-13T14:48:54;2.50;;;1.42;;
74309;SDS011;62722;51.142;17.052;2023-07-13T14:51:25;3.78;;;1.50;;
74309;SDS011;62722;51.142;17.052;2023-07-13T14:53:52;3.33;;;1.60;;
74309;SDS011;62722;51.142;17.052;2023-07-13T14:56:21;2.63;;;1.70;;
74309;SDS011;62722;51.142;17.052;2023-07-13T14:58:48;3.30;;;1.65;;